Aviation Digital Data Service (ADDS)

Output produced by METARs form (1108 UTC 18 June 2019)
found at http://www.aviationweather.gov/metar/data/
 
METAR text: ZSFZ 181100Z 21006MPS 9999 FEW019 28/25 Q1007 NOSIG
Conditions at: ZSFZ (FUZHOU , CN) observed 1100 UTC 18 June 2019
Temperature: 28.0°C (82°F)
Dewpoint: 25.0°C (77°F) [RH = 84%]
Pressure (altimeter): 29.73 inches Hg (1007.0 mb)
Winds: from the SSW (210 degrees) at 14 MPH (12 knots; 6.2 m/s)
Visibility: 6 or more miles (10+ km)
Ceiling: at least 12,000 feet AGL
Clouds: few clouds at 1900 feet AGL
Weather: no significant weather observed at this time

METAR text: ZSFZ 181000Z 20007MPS CAVOK 29/25 Q1007 NOSIG
Conditions at: ZSFZ (FUZHOU , CN) observed 1000 UTC 18 June 2019
Temperature: 29.0°C (84°F)
Dewpoint: 25.0°C (77°F) [RH = 79%]
Pressure (altimeter): 29.73 inches Hg (1007.0 mb)
Winds: from the SSW (200 degrees) at 16 MPH (14 knots; 7.2 m/s)
Visibility: 6 or more miles (10+ km)
Ceiling: ceiling and visibility are OK
Clouds: unknown
Weather: no significant weather observed at this time

METAR text: ZSFZ 180900Z 20007MPS CAVOK 30/25 Q1006 NOSIG
Conditions at: ZSFZ (FUZHOU , CN) observed 0900 UTC 18 June 2019
Temperature: 30.0°C (86°F)
Dewpoint: 25.0°C (77°F) [RH = 75%]
Pressure (altimeter): 29.70 inches Hg (1006.0 mb)
Winds: from the SSW (200 degrees) at 16 MPH (14 knots; 7.2 m/s)
Visibility: 6 or more miles (10+ km)
Ceiling: ceiling and visibility are OK
Clouds: unknown
Weather: no significant weather observed at this time

METAR text: ZSFZ 180800Z 20007MPS 9999 FEW020 30/24 Q1006 NOSIG
Conditions at: ZSFZ (FUZHOU , CN) observed 0800 UTC 18 June 2019
Temperature: 30.0°C (86°F)
Dewpoint: 24.0°C (75°F) [RH = 70%]
Pressure (altimeter): 29.70 inches Hg (1006.0 mb)
Winds: from the SSW (200 degrees) at 16 MPH (14 knots; 7.2 m/s)
Visibility: 6 or more miles (10+ km)
Ceiling: at least 12,000 feet AGL
Clouds: few clouds at 2000 feet AGL
Weather: no significant weather observed at this time

METAR text: ZSFZ 180700Z 18006MPS 9999 FEW019 32/25 Q1007 NOSIG
Conditions at: ZSFZ (FUZHOU , CN) observed 0700 UTC 18 June 2019
Temperature: 32.0°C (90°F)
Dewpoint: 25.0°C (77°F) [RH = 67%]
Pressure (altimeter): 29.73 inches Hg (1007.0 mb)
Winds: from the S (180 degrees) at 14 MPH (12 knots; 6.2 m/s)
Visibility: 6 or more miles (10+ km)
Ceiling: at least 12,000 feet AGL
Clouds: few clouds at 1900 feet AGL
Weather: no significant weather observed at this time

METAR text: ZSFZ 180600Z 17007MPS 9999 FEW017 30/24 Q1008 NOSIG
Conditions at: ZSFZ (FUZHOU , CN) observed 0600 UTC 18 June 2019
Temperature: 30.0°C (86°F)
Dewpoint: 24.0°C (75°F) [RH = 70%]
Pressure (altimeter): 29.76 inches Hg (1008.0 mb)
Winds: from the S (170 degrees) at 16 MPH (14 knots; 7.2 m/s)
Visibility: 6 or more miles (10+ km)
Ceiling: at least 12,000 feet AGL
Clouds: few clouds at 1700 feet AGL
Weather: no significant weather observed at this time

METAR text: ZSFZ 180500Z 16007MPS 9999 FEW015 30/24 Q1008 NOSIG
Conditions at: ZSFZ (FUZHOU , CN) observed 0500 UTC 18 June 2019
Temperature: 30.0°C (86°F)
Dewpoint: 24.0°C (75°F) [RH = 70%]
Pressure (altimeter): 29.76 inches Hg (1008.0 mb)
Winds: from the SSE (160 degrees) at 16 MPH (14 knots; 7.2 m/s)
Visibility: 6 or more miles (10+ km)
Ceiling: at least 12,000 feet AGL
Clouds: few clouds at 1500 feet AGL
Weather: no significant weather observed at this time

METAR text: ZSFZ 180400Z 17005MPS 9000 FEW010 29/25 Q1009 NOSIG
Conditions at: ZSFZ (FUZHOU , CN) observed 0400 UTC 18 June 2019
Temperature: 29.0°C (84°F)
Dewpoint: 25.0°C (77°F) [RH = 79%]
Pressure (altimeter): 29.79 inches Hg (1009.0 mb)
Winds: from the S (170 degrees) at 12 MPH (10 knots; 5.1 m/s)
Visibility: 6 miles ( 9 km)
Ceiling: at least 12,000 feet AGL
Clouds: few clouds at 1000 feet AGL
Weather: no significant weather observed at this time

METAR text: ZSFZ 180300Z 17005MPS 8000 SCT010 29/24 Q1009 NOSIG
Conditions at: ZSFZ (FUZHOU , CN) observed 0300 UTC 18 June 2019
Temperature: 29.0°C (84°F)
Dewpoint: 24.0°C (75°F) [RH = 74%]
Pressure (altimeter): 29.79 inches Hg (1009.0 mb)
Winds: from the S (170 degrees) at 12 MPH (10 knots; 5.1 m/s)
Visibility: 5 miles ( 8 km)
Ceiling: at least 12,000 feet AGL
Clouds: scattered clouds at 1000 feet AGL
Weather: no significant weather observed at this time

METAR text: ZSFZ 180200Z 18002MPS 140V220 8000 SCT011 BKN020 28/24 Q1010 NOSIG
Conditions at: ZSFZ (FUZHOU , CN) observed 0200 UTC 18 June 2019
Temperature: 28.0°C (82°F)
Dewpoint: 24.0°C (75°F) [RH = 79%]
Pressure (altimeter): 29.82 inches Hg (1010.0 mb)
Winds: from the S (180 degrees) at 5 MPH (4 knots; 2.1 m/s)
Visibility: 5 miles ( 8 km)
Ceiling: 2000 feet AGL
Clouds: scattered clouds at 1100 feet AGL
broken clouds at 2000 feet AGL
Weather: no significant weather observed at this time

METAR text: ZSFZ 180100Z 16003MPS 7000 FEW007 SCT015 BKN024 27/24 Q1010 NOSIG
Conditions at: ZSFZ (FUZHOU , CN) observed 0100 UTC 18 June 2019
Temperature: 27.0°C (81°F)
Dewpoint: 24.0°C (75°F) [RH = 84%]
Pressure (altimeter): 29.82 inches Hg (1010.0 mb)
Winds: from the SSE (160 degrees) at 7 MPH (6 knots; 3.1 m/s)
Visibility: 4 miles ( 7 km)
Ceiling: 2400 feet AGL
Clouds: few clouds at 700 feet AGL
scattered clouds at 1500 feet AGL
broken clouds at 2400 feet AGL
Weather: no significant weather observed at this time

METAR text: ZSFZ 180000Z VRB01MPS 5000 BR FEW007 BKN019 26/24 Q1010 NOSIG
Conditions at: ZSFZ (FUZHOU , CN) observed 0000 UTC 18 June 2019
Temperature: 26.0°C (79°F)
Dewpoint: 24.0°C (75°F) [RH = 89%]
Pressure (altimeter): 29.82 inches Hg (1010.0 mb)
Winds: variable direction winds at 2 MPH (2 knots; 1.0 m/s)
Visibility: 3 miles ( 5 km)
Ceiling: 1900 feet AGL
Clouds: few clouds at 700 feet AGL
broken clouds at 1900 feet AGL
Weather: BR  (mist)

METAR text: ZSFZ 172300Z VRB01MPS 4000 BR FEW007 BKN019 BKN036 26/24 Q1010 NOSIG
Conditions at: ZSFZ (FUZHOU , CN) observed 2300 UTC 17 June 2019
Temperature: 26.0°C (79°F)
Dewpoint: 24.0°C (75°F) [RH = 89%]
Pressure (altimeter): 29.82 inches Hg (1010.0 mb)
Winds: variable direction winds at 2 MPH (2 knots; 1.0 m/s)
Visibility: 2.49 miles (4.01 km)
Ceiling: 1900 feet AGL
Clouds: few clouds at 700 feet AGL
broken clouds at 1900 feet AGL
broken clouds at 3600 feet AGL
Weather: BR  (mist)

METAR text: ZSFZ 172200Z 18002MPS 3000 BR BKN021 BKN043 25/24 Q1009 NOSIG
Conditions at: ZSFZ (FUZHOU , CN) observed 2200 UTC 17 June 2019
Temperature: 25.0°C (77°F)
Dewpoint: 24.0°C (75°F) [RH = 94%]
Pressure (altimeter): 29.79 inches Hg (1009.0 mb)
Winds: from the S (180 degrees) at 5 MPH (4 knots; 2.1 m/s)
Visibility: 1.86 miles (2.99 km)
Ceiling: 2100 feet AGL
Clouds: broken clouds at 2100 feet AGL
broken clouds at 4300 feet AGL
Weather: BR  (mist)

METAR text: ZSFZ 172100Z 17001MPS 4000 BR BKN023 BKN046 25/24 Q1009 NOSIG
Conditions at: ZSFZ (FUZHOU , CN) observed 2100 UTC 17 June 2019
Temperature: 25.0°C (77°F)
Dewpoint: 24.0°C (75°F) [RH = 94%]
Pressure (altimeter): 29.79 inches Hg (1009.0 mb)
Winds: from the S (170 degrees) at 2 MPH (2 knots; 1.0 m/s)
Visibility: 2.49 miles (4.01 km)
Ceiling: 2300 feet AGL
Clouds: broken clouds at 2300 feet AGL
broken clouds at 4600 feet AGL
Weather: BR  (mist)

METAR text: ZSFZ 172000Z 00000MPS 5000 BR BKN050 25/23 Q1009 NOSIG
Conditions at: ZSFZ (FUZHOU , CN) observed 2000 UTC 17 June 2019
Temperature: 25.0°C (77°F)
Dewpoint: 23.0°C (73°F) [RH = 89%]
Pressure (altimeter): 29.79 inches Hg (1009.0 mb)
Winds: calm
Visibility: 3 miles ( 5 km)
Ceiling: 5000 feet AGL
Clouds: broken clouds at 5000 feet AGL
Weather: BR  (mist)

METAR text: ZSFZ 171900Z 22001MPS 5000 BR FEW009 BKN033 24/23 Q1009 NOSIG
Conditions at: ZSFZ (FUZHOU , CN) observed 1900 UTC 17 June 2019
Temperature: 24.0°C (75°F)
Dewpoint: 23.0°C (73°F) [RH = 94%]
Pressure (altimeter): 29.79 inches Hg (1009.0 mb)
Winds: from the SW (220 degrees) at 2 MPH (2 knots; 1.0 m/s)
Visibility: 3 miles ( 5 km)
Ceiling: 3300 feet AGL
Clouds: few clouds at 900 feet AGL
broken clouds at 3300 feet AGL
Weather: BR  (mist)

METAR text: ZSFZ 171800Z VRB01MPS 6000 FEW009 BKN040 24/23 Q1009 NOSIG
Conditions at: ZSFZ (FUZHOU , CN) observed 1800 UTC 17 June 2019
Temperature: 24.0°C (75°F)
Dewpoint: 23.0°C (73°F) [RH = 94%]
Pressure (altimeter): 29.79 inches Hg (1009.0 mb)
Winds: variable direction winds at 2 MPH (2 knots; 1.0 m/s)
Visibility: 4 miles ( 6 km)
Ceiling: 4000 feet AGL
Clouds: few clouds at 900 feet AGL
broken clouds at 4000 feet AGL
Weather: no significant weather observed at this time

METAR text: ZSFZ 171700Z VRB01MPS 7000 FEW043 25/23 Q1010 NOSIG
Conditions at: ZSFZ (FUZHOU , CN) observed 1700 UTC 17 June 2019
Temperature: 25.0°C (77°F)
Dewpoint: 23.0°C (73°F) [RH = 89%]
Pressure (altimeter): 29.82 inches Hg (1010.0 mb)
Winds: variable direction winds at 2 MPH (2 knots; 1.0 m/s)
Visibility: 4 miles ( 7 km)
Ceiling: at least 12,000 feet AGL
Clouds: few clouds at 4300 feet AGL
Weather: no significant weather observed at this time

METAR text: ZSFZ 171600Z 33001MPS 9000 FEW011 BKN033 25/23 Q1011 NOSIG
Conditions at: ZSFZ (FUZHOU , CN) observed 1600 UTC 17 June 2019
Temperature: 25.0°C (77°F)
Dewpoint: 23.0°C (73°F) [RH = 89%]
Pressure (altimeter): 29.85 inches Hg (1011.0 mb)
Winds: from the NNW (330 degrees) at 2 MPH (2 knots; 1.0 m/s)
Visibility: 6 miles ( 9 km)
Ceiling: 3300 feet AGL
Clouds: few clouds at 1100 feet AGL
broken clouds at 3300 feet AGL
Weather: no significant weather observed at this time

METAR text: ZSFZ 171500Z VRB01MPS 7000 BKN006 OVC011 25/24 Q1011 NOSIG
Conditions at: ZSFZ (FUZHOU , CN) observed 1500 UTC 17 June 2019
Temperature: 25.0°C (77°F)
Dewpoint: 24.0°C (75°F) [RH = 94%]
Pressure (altimeter): 29.85 inches Hg (1011.0 mb)
Winds: variable direction winds at 2 MPH (2 knots; 1.0 m/s)
Visibility: 4 miles ( 7 km)
Ceiling: 600 feet AGL
Clouds: broken clouds at 600 feet AGL
overcast cloud deck at 1100 feet AGL
Weather: no significant weather observed at this time

METAR text: ZSFZ 171400Z VRB01MPS 7000 BKN006 OVC009 25/23 Q1012 NOSIG
Conditions at: ZSFZ (FUZHOU , CN) observed 1400 UTC 17 June 2019
Temperature: 25.0°C (77°F)
Dewpoint: 23.0°C (73°F) [RH = 89%]
Pressure (altimeter): 29.88 inches Hg (1012.0 mb)
Winds: variable direction winds at 2 MPH (2 knots; 1.0 m/s)
Visibility: 4 miles ( 7 km)
Ceiling: 600 feet AGL
Clouds: broken clouds at 600 feet AGL
overcast cloud deck at 900 feet AGL
Weather: no significant weather observed at this time

METAR text: ZSFZ 171300Z 03003MPS 7000 BKN005 OVC008 25/23 Q1011 BECMG TL1330 BKN004
Conditions at: ZSFZ (FUZHOU , CN) observed 1300 UTC 17 June 2019
Temperature: 25.0°C (77°F)
Dewpoint: 23.0°C (73°F) [RH = 89%]
Pressure (altimeter): 29.85 inches Hg (1011.0 mb)
Winds: from the NNE (30 degrees) at 7 MPH (6 knots; 3.1 m/s)
Visibility: 4 miles ( 7 km)
Ceiling: 500 feet AGL
Clouds: broken clouds at 500 feet AGL
overcast cloud deck at 800 feet AGL
Weather: no significant weather observed at this time

METAR text: ZSFZ 171200Z 03003MPS 7000 BKN007 25/23 Q1011 BECMG TL1230 BKN010
Conditions at: ZSFZ (FUZHOU , CN) observed 1200 UTC 17 June 2019
Temperature: 25.0°C (77°F)
Dewpoint: 23.0°C (73°F) [RH = 89%]
Pressure (altimeter): 29.85 inches Hg (1011.0 mb)
Winds: from the NNE (30 degrees) at 7 MPH (6 knots; 3.1 m/s)
Visibility: 4 miles ( 7 km)
Ceiling: 700 feet AGL
Clouds: broken clouds at 700 feet AGL
Weather: no significant weather observed at this time

METAR text: ZSFZ 171100Z 03004MPS 6000 SCT008 25/23 Q1010 NOSIG
Conditions at: ZSFZ (FUZHOU , CN) observed 1100 UTC 17 June 2019
Temperature: 25.0°C (77°F)
Dewpoint: 23.0°C (73°F) [RH = 89%]
Pressure (altimeter): 29.82 inches Hg (1010.0 mb)
Winds: from the NNE (30 degrees) at 9 MPH (8 knots; 4.1 m/s)
Visibility: 4 miles ( 6 km)
Ceiling: at least 12,000 feet AGL
Clouds: scattered clouds at 800 feet AGL
Weather: no significant weather observed at this time

METAR text: ZSFZ 171000Z 03004MPS 8000 NSC 26/23 Q1010 NOSIG
Conditions at: ZSFZ (FUZHOU , CN) observed 1000 UTC 17 June 2019
Temperature: 26.0°C (79°F)
Dewpoint: 23.0°C (73°F) [RH = 84%]
Pressure (altimeter): 29.82 inches Hg (1010.0 mb)
Winds: from the NNE (30 degrees) at 9 MPH (8 knots; 4.1 m/s)
Visibility: 5 miles ( 8 km)
Ceiling: at least 12,000 feet AGL
Clouds: sky clear below 12,000 feet AGL
Weather: no significant weather observed at this time

METAR text: ZSFZ 170900Z 05004MPS 9999 FEW013 27/23 Q1009 NOSIG
Conditions at: ZSFZ (FUZHOU , CN) observed 0900 UTC 17 June 2019
Temperature: 27.0°C (81°F)
Dewpoint: 23.0°C (73°F) [RH = 79%]
Pressure (altimeter): 29.79 inches Hg (1009.0 mb)
Winds: from the NE (50 degrees) at 9 MPH (8 knots; 4.1 m/s)
Visibility: 6 or more miles (10+ km)
Ceiling: at least 12,000 feet AGL
Clouds: few clouds at 1300 feet AGL
Weather: no significant weather observed at this time

METAR text: ZSFZ 170800Z 06005MPS 9999 FEW015 28/23 Q1010 NOSIG
Conditions at: ZSFZ (FUZHOU , CN) observed 0800 UTC 17 June 2019
Temperature: 28.0°C (82°F)
Dewpoint: 23.0°C (73°F) [RH = 74%]
Pressure (altimeter): 29.82 inches Hg (1010.0 mb)
Winds: from the ENE (60 degrees) at 12 MPH (10 knots; 5.1 m/s)
Visibility: 6 or more miles (10+ km)
Ceiling: at least 12,000 feet AGL
Clouds: few clouds at 1500 feet AGL
Weather: no significant weather observed at this time

METAR text: ZSFZ 170700Z 04005MPS 010V070 9999 FEW015 28/23 Q1010 NOSIG
Conditions at: ZSFZ (FUZHOU , CN) observed 0700 UTC 17 June 2019
Temperature: 28.0°C (82°F)
Dewpoint: 23.0°C (73°F) [RH = 74%]
Pressure (altimeter): 29.82 inches Hg (1010.0 mb)
Winds: from the NE (40 degrees) at 12 MPH (10 knots; 5.1 m/s)
Visibility: 6 or more miles (10+ km)
Ceiling: at least 12,000 feet AGL
Clouds: few clouds at 1500 feet AGL
Weather: no significant weather observed at this time

METAR text: ZSFZ 170600Z 05006MPS 9999 FEW017 29/22 Q1010 NOSIG
Conditions at: ZSFZ (FUZHOU , CN) observed 0600 UTC 17 June 2019
Temperature: 29.0°C (84°F)
Dewpoint: 22.0°C (72°F) [RH = 66%]
Pressure (altimeter): 29.82 inches Hg (1010.0 mb)
Winds: from the NE (50 degrees) at 14 MPH (12 knots; 6.2 m/s)
Visibility: 6 or more miles (10+ km)
Ceiling: at least 12,000 feet AGL
Clouds: few clouds at 1700 feet AGL
Weather: no significant weather observed at this time

METAR text: ZSFZ 170500Z 05006MPS 9999 SCT015 28/22 Q1011 NOSIG
Conditions at: ZSFZ (FUZHOU , CN) observed 0500 UTC 17 June 2019
Temperature: 28.0°C (82°F)
Dewpoint: 22.0°C (72°F) [RH = 70%]
Pressure (altimeter): 29.85 inches Hg (1011.0 mb)
Winds: from the NE (50 degrees) at 14 MPH (12 knots; 6.2 m/s)
Visibility: 6 or more miles (10+ km)
Ceiling: at least 12,000 feet AGL
Clouds: scattered clouds at 1500 feet AGL
Weather: no significant weather observed at this time

METAR text: ZSFZ 170400Z 03007MPS 9999 SCT013 BKN040 27/22 Q1011 NOSIG
Conditions at: ZSFZ (FUZHOU , CN) observed 0400 UTC 17 June 2019
Temperature: 27.0°C (81°F)
Dewpoint: 22.0°C (72°F) [RH = 74%]
Pressure (altimeter): 29.85 inches Hg (1011.0 mb)
Winds: from the NNE (30 degrees) at 16 MPH (14 knots; 7.2 m/s)
Visibility: 6 or more miles (10+ km)
Ceiling: 4000 feet AGL
Clouds: scattered clouds at 1300 feet AGL
broken clouds at 4000 feet AGL
Weather: no significant weather observed at this time

METAR text: ZSFZ 170300Z 03006MPS 9999 SCT015 BKN036 26/21 Q1011 NOSIG
Conditions at: ZSFZ (FUZHOU , CN) observed 0300 UTC 17 June 2019
Temperature: 26.0°C (79°F)
Dewpoint: 21.0°C (70°F) [RH = 74%]
Pressure (altimeter): 29.85 inches Hg (1011.0 mb)
Winds: from the NNE (30 degrees) at 14 MPH (12 knots; 6.2 m/s)
Visibility: 6 or more miles (10+ km)
Ceiling: 3600 feet AGL
Clouds: scattered clouds at 1500 feet AGL
broken clouds at 3600 feet AGL
Weather: no significant weather observed at this time

METAR text: ZSFZ 170200Z 03006MPS 9999 BKN015 BKN033 27/21 Q1011 NOSIG
Conditions at: ZSFZ (FUZHOU , CN) observed 0200 UTC 17 June 2019
Temperature: 27.0°C (81°F)
Dewpoint: 21.0°C (70°F) [RH = 70%]
Pressure (altimeter): 29.85 inches Hg (1011.0 mb)
Winds: from the NNE (30 degrees) at 14 MPH (12 knots; 6.2 m/s)
Visibility: 6 or more miles (10+ km)
Ceiling: 1500 feet AGL
Clouds: broken clouds at 1500 feet AGL
broken clouds at 3300 feet AGL
Weather: no significant weather observed at this time

METAR text: ZSFZ 170100Z 03005MPS 9999 BKN015 BKN036 26/21 Q1011 NOSIG
Conditions at: ZSFZ (FUZHOU , CN) observed 0100 UTC 17 June 2019
Temperature: 26.0°C (79°F)
Dewpoint: 21.0°C (70°F) [RH = 74%]
Pressure (altimeter): 29.85 inches Hg (1011.0 mb)
Winds: from the NNE (30 degrees) at 12 MPH (10 knots; 5.1 m/s)
Visibility: 6 or more miles (10+ km)
Ceiling: 1500 feet AGL
Clouds: broken clouds at 1500 feet AGL
broken clouds at 3600 feet AGL
Weather: no significant weather observed at this time

METAR text: ZSFZ 170000Z 02003MPS 330V050 9999 BKN017 BKN033 26/21 Q1011 NOSIG
Conditions at: ZSFZ (FUZHOU , CN) observed 0000 UTC 17 June 2019
Temperature: 26.0°C (79°F)
Dewpoint: 21.0°C (70°F) [RH = 74%]
Pressure (altimeter): 29.85 inches Hg (1011.0 mb)
Winds: from the NNE (20 degrees) at 7 MPH (6 knots; 3.1 m/s)
Visibility: 6 or more miles (10+ km)
Ceiling: 1700 feet AGL
Clouds: broken clouds at 1700 feet AGL
broken clouds at 3300 feet AGL
Weather: no significant weather observed at this time

Forecast for: ZSFZ (FUZHOU , CN)
Text: TAF ZSFZ 180910Z 1812/1912 20005MPS 7000 FEW015 TX31/1906Z TN24/1821Z
Forecast period: 1200 to 1300 UTC 18 June 2019
Forecast type: FROM: standard forecast or significant change
Winds: from the SSW (200 degrees) at 12 MPH (10 knots; 5.1 m/s)
Visibility: 4 miles (7 km)
Ceiling: at least 12,000 feet AGL
Clouds: few clouds at 1500 feet AGL
Weather: no significant weather forecast for this period
Text: BECMG 1813/1815 2500 BR BKN010
Forecast period: 1300 UTC 18 June 2019 to 0000 UTC 19 June 2019
Forecast type: BECOMING: Conditions expected to become as follows by 1500 UTC 18 June 2019
Winds: from the SSW (200 degrees) at 12 MPH (10 knots; 5.1 m/s)
Visibility: 1.55 miles (2.49 km)
Ceiling: 1000 feet AGL
Clouds: broken clouds at 1000 feet AGL
Weather: BR  (mist)
Text: BECMG 1900/1902 7000
Forecast period: 0000 to 1200 UTC 19 June 2019
Forecast type: BECOMING: Conditions expected to become as follows by 0200 UTC 19 June 2019
Winds: from the SSW (200 degrees) at 12 MPH (10 knots; 5.1 m/s)
Visibility: 4 miles (7 km)
Ceiling: 1000 feet AGL
Clouds: broken clouds at 1000 feet AGL
Weather: BR  (mist)